Time,TemperatureF,DewpointF,PressureIn,WindDirection,WindDirectionDegrees,WindSpeedMPH,WindSpeedGustMPH,Humidity,HourlyPrecipIn,Conditions,Clouds,dailyrainin,SoftwareType,DateUTC
2013-03-12 00:29:00,38.6,16.9,30.13,NNE,13,3.0,3.0,41,0.00,,,0.00,Wunderground v.1.15,2013-03-12 06:29:00,
2013-03-12 00:59:00,38.2,17.6,30.13,NE,49,1.0,1.0,43,0.00,,,0.00,Wunderground v.1.15,2013-03-12 06:59:00,
2013-03-12 01:29:00,37.9,16.3,30.10,North,0,2.0,3.0,41,0.00,,,0.00,Wunderground v.1.15,2013-03-12 07:29:00,
2013-03-12 01:59:00,37.9,16.8,30.10,NNE,27,1.0,2.0,42,0.00,,,0.00,Wunderground v.1.15,2013-03-12 07:59:00,
2013-03-12 02:29:00,37.2,18.3,30.10,North,6,1.0,1.0,46,0.00,,,0.00,Wunderground v.1.15,2013-03-12 08:29:00,
2013-03-12 02:59:00,37.0,17.6,30.12,NNE,30,1.0,1.0,45,0.00,,,0.00,Wunderground v.1.15,2013-03-12 08:59:00,
2013-03-12 03:29:00,37.0,17.6,30.09,North,357,2.0,2.0,45,0.00,,,0.00,Wunderground v.1.15,2013-03-12 09:29:00,
2013-03-12 04:29:00,37.0,18.1,30.10,North,3,2.0,2.0,46,0.00,,,0.00,Wunderground v.1.15,2013-03-12 10:29:00,
2013-03-12 04:59:00,34.3,17.6,30.13,West,275,3.0,3.0,50,0.00,,,0.00,Wunderground v.1.15,2013-03-12 10:59:00,
2013-03-12 05:29:00,33.5,17.7,30.17,South,181,3.0,3.0,52,0.00,,,0.00,Wunderground v.1.15,2013-03-12 11:29:00,
2013-03-12 05:59:00,32.9,17.2,30.18,SW,215,3.0,3.0,52,0.00,,,0.00,Wunderground v.1.15,2013-03-12 11:59:00,
2013-03-12 06:29:00,33.7,16.5,30.21,WSW,251,2.0,2.0,49,0.00,,,0.00,Wunderground v.1.15,2013-03-12 12:29:00,
2013-03-12 06:59:00,33.5,17.3,30.21,WSW,251,0.0,0.0,51,0.00,,,0.00,Wunderground v.1.15,2013-03-12 12:59:00,
2013-03-12 07:29:00,34.7,16.5,30.22,WNW,291,1.0,2.0,47,0.00,,,0.00,Wunderground v.1.15,2013-03-12 13:29:00,
2013-03-12 07:59:00,35.0,17.3,30.21,WNW,284,2.0,2.0,48,0.00,,,0.00,Wunderground v.1.15,2013-03-12 13:59:00,
2013-03-12 08:29:00,30.6,15.5,30.24,NE,41,3.0,3.0,53,0.00,,,0.00,Wunderground v.1.15,2013-03-12 14:29:00,
2013-03-12 08:59:00,32.5,18.9,30.28,NE,41,0.0,0.0,57,0.00,,,0.00,Wunderground v.1.15,2013-03-12 14:59:00,
2013-03-12 09:29:00,35.3,18.0,30.27,NE,45,2.0,3.0,49,0.00,,,0.00,Wunderground v.1.15,2013-03-12 15:29:00,
2013-03-12 09:59:00,38.2,18.7,30.25,NE,45,0.0,0.0,45,0.00,,,0.00,Wunderground v.1.15,2013-03-12 15:59:00,
2013-03-12 10:29:00,42.9,20.8,30.25,ENE,61,2.0,2.0,41,0.00,,,0.00,Wunderground v.1.15,2013-03-12 16:29:00,
2013-03-12 10:59:00,43.6,21.4,30.22,SSE,157,1.0,5.0,41,0.00,,,0.00,Wunderground v.1.15,2013-03-12 16:59:00,
2013-03-12 11:29:00,43.6,22.5,30.24,ENE,71,3.0,5.0,43,0.00,,,0.00,Wunderground v.1.15,2013-03-12 17:29:00,
2013-03-12 11:59:00,46.5,25.2,30.22,NE,37,1.0,3.0,43,0.00,,,0.00,Wunderground v.1.15,2013-03-12 17:59:00,
2013-03-12 12:29:00,48.8,23.6,30.17,SSE,162,2.0,2.0,37,0.00,,,0.00,Wunderground v.1.15,2013-03-12 18:29:00,
2013-03-12 12:59:00,48.8,20.2,30.17,SW,234,5.0,6.0,32,0.00,,,0.00,Wunderground v.1.15,2013-03-12 18:59:00,
2013-03-12 13:29:00,48.9,21.7,30.17,SW,219,6.0,8.0,34,0.00,,,0.00,Wunderground v.1.15,2013-03-12 19:29:00,
2013-03-12 13:59:00,49.9,22.6,30.16,SW,223,4.0,4.0,34,0.00,,,0.00,Wunderground v.1.15,2013-03-12 19:59:00,
2013-03-12 14:29:00,48.5,21.4,30.18,South,171,6.0,7.0,34,0.00,,,0.00,Wunderground v.1.15,2013-03-12 20:29:00,
2013-03-12 14:59:00,48.5,22.7,30.14,ESE,112,9.0,9.0,36,0.00,,,0.00,Wunderground v.1.15,2013-03-12 20:59:00,
2013-03-12 15:29:00,49.1,20.5,30.16,South,178,9.0,10.0,32,0.00,,,0.00,Wunderground v.1.15,2013-03-12 21:29:00,
2013-03-12 15:59:00,49.6,22.3,30.15,WNW,288,8.0,8.0,34,0.00,,,0.00,Wunderground v.1.15,2013-03-12 21:59:00,
2013-03-12 16:29:00,49.4,22.2,30.16,SW,236,7.0,10.0,34,0.00,,,0.00,Wunderground v.1.15,2013-03-12 22:29:00,
2013-03-12 16:59:00,49.9,22.6,30.16,SE,137,7.0,7.0,34,0.00,,,0.00,Wunderground v.1.15,2013-03-12 22:59:00,
2013-03-12 17:29:00,51.7,22.0,30.16,ENE,76,2.0,5.0,31,0.00,,,0.00,Wunderground v.1.15,2013-03-12 23:29:00,
2013-03-12 17:59:00,53.1,21.6,30.15,NE,51,2.0,2.0,29,0.00,,,0.00,Wunderground v.1.15,2013-03-12 23:59:00,
2013-03-12 18:29:00,48.3,21.2,30.17,SSE,148,2.0,2.0,34,0.00,,,0.00,Wunderground v.1.15,2013-03-13 00:29:00,
2013-03-12 18:59:00,46.1,22.5,30.20,SSW,213,3.0,3.0,39,0.00,,,0.00,Wunderground v.1.15,2013-03-13 00:59:00,
2013-03-12 19:29:00,44.9,22.6,30.23,SSW,206,2.0,2.0,41,0.00,,,0.00,Wunderground v.1.15,2013-03-13 01:29:00,
2013-03-12 21:29:00,38.9,22.8,30.27,North,353,0.0,0.0,52,0.00,,,0.00,Wunderground v.1.15,2013-03-13 03:29:00,
2013-03-12 21:59:00,36.5,22.3,30.31,North,353,0.0,0.0,56,0.00,,,0.00,Wunderground v.1.15,2013-03-13 03:59:00,
2013-03-12 22:29:00,35.5,23.0,30.31,North,353,0.0,0.0,60,0.00,,,0.00,Wunderground v.1.15,2013-03-13 04:29:00,
2013-03-12 22:59:00,36.0,22.2,30.32,NNE,32,0.0,0.0,57,0.00,,,0.00,Wunderground v.1.15,2013-03-13 04:59:00,
2013-03-12 23:24:00,35.5,22.6,30.28,NNE,32,1.0,1.0,59,0.00,,,0.00,Wunderground v.1.15,2013-03-13 05:24:00,
2013-03-12 23:29:00,35.6,22.7,30.28,NNE,32,0.0,1.0,59,0.00,,,0.00,Wunderground v.1.15,2013-03-13 05:29:00,